KSQL Airport Information

Runway Information
Runway 12 Length 2600 ft width 75 ft
Elevation 5 ft Threshold 0 ft Heading 138
Runway 30 Length 2600 ft Width 75 ft
Elevation 5 ft Threshold 0 ft Heading 318
Airport Frequencies
Type APP Name NORCAL APP Frequency 33.82 MHZ
Type APP Name NORCAL APP Frequency 133.95 MHZ
Type ATIS Name ATIS Frequency 125.9 MHZ
Type CTAF Name CTAF Frequency 119 MHZ
Type DEP Name NORCAL DEP Frequency 135.65 MHZ
Type GND Name GND Frequency 121.6 MHZ
Type TWR Name TWR Frequency 119 MHZ
Type UNIC Name UNICOM Frequency 122.95 MHZ
Airport Navaids
Airport Weather Information & NOTAM
ADDS - METARS form results

(1338 UTC 14 July 2020)
Data provider http://aviationweather.gov/metar/data/
 
METAR text: KSQL 141335Z AUTO 33003KT 9SM CLR 14/10 A2992 RMK AO2
Conditions at: KSQL (SAN CARLOS AIRPO, CA, US) observed 1335 UTC 14 July 2020
Temperature: 14.0°C (57°F)
Dewpoint: 10.0°C (50°F) [RH = 77%]
Pressure (altimeter): 29.92 inches Hg (1013.3 mb)
Winds: from the NNW (330 degrees) at 3 MPH (3 knots; 1.5 m/s)
Visibility: 9 miles (14 km)
Ceiling: at least 12,000 feet AGL
Clouds: sky clear below 12,000 feet AGL
Weather: automated observation with no human augmentation;
there may or may not be significant weather present at this time

METAR text: KSQL 141320Z AUTO 32004KT 9SM CLR 13/10 A2991 RMK AO2
Conditions at: KSQL (SAN CARLOS AIRPO, CA, US) observed 1320 UTC 14 July 2020
Temperature: 13.0°C (55°F)
Dewpoint: 10.0°C (50°F) [RH = 82%]
Pressure (altimeter): 29.91 inches Hg (1013.0 mb)
Winds: from the NW (320 degrees) at 5 MPH (4 knots; 2.1 m/s)
Visibility: 9 miles (14 km)
Ceiling: at least 12,000 feet AGL
Clouds: sky clear below 12,000 feet AGL
Weather: automated observation with no human augmentation;
there may or may not be significant weather present at this time

METAR text: KSQL 141315Z AUTO 32003KT 10SM CLR 14/10 A2991 RMK AO2
Conditions at: KSQL (SAN CARLOS AIRPO, CA, US) observed 1315 UTC 14 July 2020
Temperature: 14.0°C (57°F)
Dewpoint: 10.0°C (50°F) [RH = 77%]
Pressure (altimeter): 29.91 inches Hg (1013.0 mb)
Winds: from the NW (320 degrees) at 3 MPH (3 knots; 1.5 m/s)
Visibility: 10 or more miles (16+ km)
Ceiling: at least 12,000 feet AGL
Clouds: sky clear below 12,000 feet AGL
Weather: automated observation with no human augmentation;
there may or may not be significant weather present at this time

METAR text: KSQL 141300Z AUTO 00000KT 9SM SCT015 14/11 A2991 RMK AO2
Conditions at: KSQL (SAN CARLOS AIRPO, CA, US) observed 1300 UTC 14 July 2020
Temperature: 14.0°C (57°F)
Dewpoint: 11.0°C (52°F) [RH = 82%]
Pressure (altimeter): 29.91 inches Hg (1013.0 mb)
Winds: calm
Visibility: 9 miles (14 km)
Ceiling: at least 12,000 feet AGL
Clouds: scattered clouds at 1500 feet AGL
Weather: automated observation with no human augmentation;
there may or may not be significant weather present at this time

METAR text: KSQL 141255Z AUTO 00000KT 9SM SCT015 14/10 A2991 RMK AO2
Conditions at: KSQL (SAN CARLOS AIRPO, CA, US) observed 1255 UTC 14 July 2020
Temperature: 14.0°C (57°F)
Dewpoint: 10.0°C (50°F) [RH = 77%]
Pressure (altimeter): 29.91 inches Hg (1013.0 mb)
Winds: calm
Visibility: 9 miles (14 km)
Ceiling: at least 12,000 feet AGL
Clouds: scattered clouds at 1500 feet AGL
Weather: automated observation with no human augmentation;
there may or may not be significant weather present at this time

METAR text: KSQL 141240Z AUTO 00000KT 10SM OVC015 14/10 A2991 RMK AO2
Conditions at: KSQL (SAN CARLOS AIRPO, CA, US) observed 1240 UTC 14 July 2020
Temperature: 14.0°C (57°F)
Dewpoint: 10.0°C (50°F) [RH = 77%]
Pressure (altimeter): 29.91 inches Hg (1013.0 mb)
Winds: calm
Visibility: 10 or more miles (16+ km)
Ceiling: 1500 feet AGL
Clouds: overcast cloud deck at 1500 feet AGL
Weather: automated observation with no human augmentation;
there may or may not be significant weather present at this time